Time;durP1;ratioP1;P1;durP2;ratioP2;P2;SDS_P1;SDS_P2;PMS_P1;PMS_P2;Temp;Humidity;BMP_temperature;BMP_pressure;BME280_temperature;BME280_humidity;BME280_pressure;Samples;Min_cycle;Max_cycle;Signal;HPM_P1;HPM_P2
2022/09/05 00:01:27;;;;;;;7.68;6.13;;;;;;;;;;4960715;28;20174;-61
2022/09/05 00:04:00;;;;;;;12.43;6.25;;;;;;;;;;4952844;28;20503;-62
2022/09/05 00:06:31;;;;;;;8.90;6.10;;;;;;;;;;4970149;28;20081;-61
2022/09/05 00:09:03;;;;;;;7.03;5.65;;;;;;;;;;4971575;28;20464;-62
2022/09/05 00:11:34;;;;;;;7.85;6.05;;;;;;;;;;4974429;28;20108;-62
2022/09/05 00:14:00;;;;;;;8.77;5.70;;;;;;;;;;4976701;28;20065;-61
2022/09/05 00:16:45;;;;;;;8.35;6.13;;;;;;;;;;4973737;28;20467;-62
2022/09/05 00:19:14;;;;;;;7.57;6.00;;;;;;;;;;4966618;28;20264;-61
2022/09/05 00:21:51;;;;;;;9.93;6.53;;;;;;;;;;4991049;28;20046;-62
2022/09/05 00:24:42;;;;;;;7.07;5.78;;;;;;;;;;4985911;28;20030;-61
2022/09/05 00:27:49;;;;;;;8.20;6.20;;;;;;;;;;4965784;28;20407;-62
2022/09/05 00:30:20;;;;;;;9.90;6.07;;;;;;;;;;4954800;28;20399;-61
2022/09/05 00:33:15;;;;;;;7.30;5.88;;;;;;;;;;4969337;28;20027;-61
2022/09/05 00:36:18;;;;;;;8.98;6.10;;;;;;;;;;4977095;28;20545;-61
2022/09/05 00:38:57;;;;;;;9.10;6.88;;;;;;;;;;4982725;28;20034;-61
2022/09/05 00:41:23;;;;;;;8.27;6.55;;;;;;;;;;4986670;28;20038;-62
2022/09/05 00:43:50;;;;;;;7.32;5.95;;;;;;;;;;4982381;28;20035;-62
2022/09/05 00:46:25;;;;;;;8.30;6.22;;;;;;;;;;4969803;28;20030;-62
2022/09/05 00:49:12;;;;;;;7.32;6.00;;;;;;;;;;4976853;28;20118;-61
2022/09/05 00:51:43;;;;;;;7.60;6.40;;;;;;;;;;4976301;28;20463;-61
2022/09/05 00:54:11;;;;;;;;;;;;;;;;;;4974492;28;20035;-61
2022/09/05 00:56:57;;;;;;;8.38;6.50;;;;;;;;;;4973857;28;19914;-61
2022/09/05 01:00:01;;;;;;;8.60;5.88;;;;;;;;;;4987877;28;20054;-61
2022/09/05 01:02:30;;;;;;;9.55;6.35;;;;;;;;;;4966356;28;20042;-61
2022/09/05 01:05:23;;;;;;;9.68;6.45;;;;;;;;;;4972803;28;20114;-62
2022/09/05 01:08:16;;;;;;;8.80;6.32;;;;;;;;;;4975930;28;20027;-61
2022/09/05 01:10:44;;;;;;;7.20;6.30;;;;;;;;;;4974353;28;20030;-62
2022/09/05 01:13:34;;;;;;;9.20;6.57;;;;;;;;;;4973643;28;20153;-62
2022/09/05 01:16:15;;;;;;;7.55;6.07;;;;;;;;;;4973984;28;20030;-62
2022/09/05 01:18:40;;;;;;;7.60;6.32;;;;;;;;;;4976683;28;20113;-62
2022/09/05 01:21:39;;;;;;;8.23;6.18;;;;;;;;;;4972383;28;20125;-62
2022/09/05 01:24:31;;;;;;;8.15;6.10;;;;;;;;;;4983841;28;20085;-62
2022/09/05 01:27:15;;;;;;;6.53;5.63;;;;;;;;;;4975810;28;20038;-61
2022/09/05 01:29:55;;;;;;;8.60;6.40;;;;;;;;;;4987564;28;20065;-62
2022/09/05 01:32:29;;;;;;;8.35;6.50;;;;;;;;;;4991080;28;20030;-62
2022/09/05 01:35:32;;;;;;;7.60;5.95;;;;;;;;;;4992618;28;20444;-61
2022/09/05 01:38:30;;;;;;;9.70;7.18;;;;;;;;;;4977043;28;20038;-61
2022/09/05 01:41:20;;;;;;;8.70;6.88;;;;;;;;;;4963759;28;20529;-61
2022/09/05 01:44:27;;;;;;;8.60;6.57;;;;;;;;;;4973651;28;20463;-63
2022/09/05 01:47:16;;;;;;;8.93;7.13;;;;;;;;;;4968766;28;20035;-64
2022/09/05 01:50:08;;;;;;;7.40;6.60;;;;;;;;;;4977778;28;20375;-63
2022/09/05 01:52:55;;;;;;;9.07;7.13;;;;;;;;;;4962604;28;20118;-64
2022/09/05 01:55:57;;;;;;;7.70;6.82;;;;;;;;;;4976915;28;20166;-62
2022/09/05 01:58:30;;;;;;;8.15;6.72;;;;;;;;;;4976153;28;20050;-62
2022/09/05 02:01:04;;;;;;;8.18;6.13;;;;;;;;;;4981233;28;20034;-62
2022/09/05 02:03:32;;;;;;;7.60;6.22;;;;;;;;;;4992174;28;20045;-63
2022/09/05 02:06:22;;;;;;;7.55;6.63;;;;;;;;;;4970596;28;20547;-62
2022/09/05 02:09:12;;;;;;;8.10;6.32;;;;;;;;;;4964554;28;20534;-62
2022/09/05 02:11:49;;;;;;;7.53;6.28;;;;;;;;;;4955673;28;20086;-63
2022/09/05 02:14:39;;;;;;;8.02;6.47;;;;;;;;;;4962531;28;20031;-62
2022/09/05 02:17:20;;;;;;;11.05;6.57;;;;;;;;;;4978523;28;20045;-62
2022/09/05 02:20:06;;;;;;;8.18;6.90;;;;;;;;;;4970980;28;20043;-63
2022/09/05 02:22:42;;;;;;;9.30;7.32;;;;;;;;;;4972636;28;20046;-62
2022/09/05 02:25:23;;;;;;;8.13;6.72;;;;;;;;;;4977348;28;20467;-62
2022/09/05 02:27:59;;;;;;;9.43;7.10;;;;;;;;;;4980894;28;20518;-62
2022/09/05 02:30:30;;;;;;;8.18;6.82;;;;;;;;;;4981495;28;20076;-62
2022/09/05 02:33:22;;;;;;;10.55;7.07;;;;;;;;;;4989524;28;20042;-62
2022/09/05 02:36:13;;;;;;;10.77;6.82;;;;;;;;;;4964479;28;20027;-61
2022/09/05 02:38:59;;;;;;;8.50;6.90;;;;;;;;;;4971041;28;20035;-62
2022/09/05 02:41:49;;;;;;;7.47;6.45;;;;;;;;;;4972225;28;20031;-62
2022/09/05 02:44:26;;;;;;;8.23;6.70;;;;;;;;;;4972948;28;20041;-62
2022/09/05 02:47:18;;;;;;;8.10;6.47;;;;;;;;;;4991540;28;20073;-62
2022/09/05 02:49:49;;;;;;;7.18;6.20;;;;;;;;;;4978098;28;20037;-61
2022/09/05 02:52:18;;;;;;;7.50;6.10;;;;;;;;;;4975440;28;20061;-62
2022/09/05 02:54:48;;;;;;;7.72;6.35;;;;;;;;;;4976246;28;20042;-63
2022/09/05 02:57:37;;;;;;;8.35;6.18;;;;;;;;;;4989767;28;20034;-62
2022/09/05 03:00:37;;;;;;;7.32;5.55;;;;;;;;;;4976265;28;20454;-62
2022/09/05 03:03:29;;;;;;;7.00;5.90;;;;;;;;;;4979461;28;20071;-62
2022/09/05 03:06:08;;;;;;;6.97;5.40;;;;;;;;;;4984345;28;20089;-62
2022/09/05 03:08:52;;;;;;;8.98;5.82;;;;;;;;;;4980283;28;20489;-62
2022/09/05 03:12:02;;;;;;;7.80;6.10;;;;;;;;;;4963762;28;20042;-61
2022/09/05 03:14:59;;;;;;;7.30;6.03;;;;;;;;;;4964052;28;20049;-62
2022/09/05 03:17:45;;;;;;;7.65;6.30;;;;;;;;;;4984401;28;20089;-63
2022/09/05 03:20:40;;;;;;;8.57;5.95;;;;;;;;;;4974867;28;20049;-62
2022/09/05 03:23:42;;;;;;;8.48;6.40;;;;;;;;;;4976495;28;20053;-63
2022/09/05 03:26:26;;;;;;;8.63;6.70;;;;;;;;;;4977801;28;20034;-62
2022/09/05 03:29:06;;;;;;;8.98;6.50;;;;;;;;;;4973153;28;20125;-62
2022/09/05 03:31:52;;;;;;;8.48;6.30;;;;;;;;;;4988764;28;20026;-61
2022/09/05 03:34:46;;;;;;;9.60;6.63;;;;;;;;;;4978776;28;20050;-61
2022/09/05 03:37:17;;;;;;;8.23;6.80;;;;;;;;;;4971440;28;20083;-61
2022/09/05 03:40:06;;;;;;;8.23;6.60;;;;;;;;;;4973060;28;20057;-61
2022/09/05 03:42:51;;;;;;;9.90;6.65;;;;;;;;;;4974544;28;20117;-61
2022/09/05 03:45:34;;;;;;;7.15;6.45;;;;;;;;;;4989153;28;20034;-61
2022/09/05 03:48:42;;;;;;;8.30;6.53;;;;;;;;;;4988902;28;20484;-61
2022/09/05 03:51:10;;;;;;;8.30;6.38;;;;;;;;;;4970263;28;20084;-61
2022/09/05 03:54:02;;;;;;;7.15;6.43;;;;;;;;;;4983856;28;20468;-62
2022/09/05 03:56:56;;;;;;;7.50;6.32;;;;;;;;;;4981191;28;20037;-61
2022/09/05 03:59:30;;;;;;;7.80;6.38;;;;;;;;;;4976140;28;20060;-61
2022/09/05 04:02:03;;;;;;;7.35;6.10;;;;;;;;;;4983698;28;20046;-61
2022/09/05 04:04:32;;;;;;;8.68;6.30;;;;;;;;;;4967083;28;20098;-61
2022/09/05 04:07:02;;;;;;;6.80;5.80;;;;;;;;;;4987371;28;20030;-61
2022/09/05 04:09:54;;;;;;;8.17;6.23;;;;;;;;;;4969617;28;20046;-61
2022/09/05 04:12:45;;;;;;;6.82;5.72;;;;;;;;;;4972815;28;20026;-61
2022/09/05 04:15:39;;;;;;;6.88;6.03;;;;;;;;;;4976577;28;20037;-62
2022/09/05 04:18:11;;;;;;;8.20;5.95;;;;;;;;;;4982678;28;20180;-61
2022/09/05 04:20:54;;;;;;;8.07;5.53;;;;;;;;;;4989956;28;20065;-63
2022/09/05 04:23:24;;;;;;;7.82;5.63;;;;;;;;;;4989381;28;20034;-61
2022/09/05 04:25:59;;;;;;;8.50;5.90;;;;;;;;;;4976200;28;20031;-62
2022/09/05 04:28:49;;;;;;;7.03;5.32;;;;;;;;;;4970743;28;20034;-62
2022/09/05 04:31:33;;;;;;;7.95;5.55;;;;;;;;;;4984216;28;20038;-62
2022/09/05 04:34:17;;;;;;;6.50;5.28;;;;;;;;;;4985513;28;20083;-62
2022/09/05 04:36:43;;;;;;;7.75;5.40;;;;;;;;;;4978616;28;20125;-61
2022/09/05 04:39:18;;;;;;;8.13;6.28;;;;;;;;;;4992250;28;20109;-61
2022/09/05 04:41:52;;;;;;;7.05;5.57;;;;;;;;;;4984776;28;20061;-62
2022/09/05 04:44:29;;;;;;;8.05;5.20;;;;;;;;;;4973011;28;20057;-61
2022/09/05 04:47:20;;;;;;;7.57;5.63;;;;;;;;;;4979586;28;20030;-61
2022/09/05 04:50:13;;;;;;;8.23;5.90;;;;;;;;;;4988058;28;20026;-62
2022/09/05 04:52:48;;;;;;;7.93;5.72;;;;;;;;;;4979447;28;20038;-61
2022/09/05 04:55:18;;;;;;;6.97;5.50;;;;;;;;;;4980681;28;20400;-61
2022/09/05 04:57:50;;;;;;;6.47;5.20;;;;;;;;;;4957145;28;20461;-61
2022/09/05 05:00:24;;;;;;;8.48;5.40;;;;;;;;;;4990090;28;20085;-61
2022/09/05 05:02:59;;;;;;;7.25;5.50;;;;;;;;;;4973911;28;20588;-61
2022/09/05 05:05:47;;;;;;;25.58;9.32;;;;;;;;;;4961282;28;20110;-61
2022/09/05 05:08:21;;;;;;;9.40;6.00;;;;;;;;;;4947836;28;20061;-62
2022/09/05 05:11:12;;;;;;;9.27;6.22;;;;;;;;;;4976125;28;20043;-62
2022/09/05 05:13:40;;;;;;;;;;;;;;;;;;4973243;28;20480;-60
2022/09/05 05:16:15;;;;;;;9.35;5.53;;;;;;;;;;4976040;28;19918;-62
2022/09/05 05:18:47;;;;;;;7.55;5.78;;;;;;;;;;4974325;28;20023;-66
2022/09/05 05:21:17;;;;;;;6.57;5.50;;;;;;;;;;4968001;28;20031;-65
2022/09/05 05:23:48;;;;;;;9.45;5.88;;;;;;;;;;4975943;28;20081;-64
2022/09/05 05:26:25;;;;;;;8.15;5.43;;;;;;;;;;4976294;28;20117;-66
2022/09/05 05:29:03;;;;;;;8.15;6.18;;;;;;;;;;4972352;28;20264;-67
2022/09/05 05:31:34;;;;;;;7.60;5.70;;;;;;;;;;4973259;28;20491;-67
2022/09/05 05:34:23;;;;;;;10.20;6.25;;;;;;;;;;4974006;28;20042;-66
2022/09/05 05:36:56;;;;;;;7.85;6.40;;;;;;;;;;4972459;28;20069;-66
2022/09/05 05:39:24;;;;;;;10.07;6.20;;;;;;;;;;4973885;28;20381;-67
2022/09/05 05:41:57;;;;;;;9.45;6.15;;;;;;;;;;4976989;28;20085;-67
2022/09/05 05:44:29;;;;;;;7.97;5.80;;;;;;;;;;4973484;28;20490;-67
2022/09/05 05:46:58;;;;;;;7.55;5.93;;;;;;;;;;4973816;28;20035;-68
2022/09/05 05:49:44;;;;;;;10.02;5.95;;;;;;;;;;4973392;28;20042;-65
2022/09/05 05:52:33;;;;;;;9.38;5.90;;;;;;;;;;4972616;28;20046;-68
2022/09/05 05:55:11;;;;;;;8.48;6.10;;;;;;;;;;4968266;28;20042;-64
2022/09/05 05:58:02;;;;;;;13.73;6.55;;;;;;;;;;4969454;28;20038;-64
2022/09/05 06:00:30;;;;;;;8.93;6.40;;;;;;;;;;4962235;28;20638;-68
2022/09/05 06:03:20;;;;;;;10.18;6.90;;;;;;;;;;4974820;28;20388;-66
2022/09/05 06:05:54;;;;;;;10.25;7.03;;;;;;;;;;4972489;28;20045;-67
2022/09/05 06:08:45;;;;;;;11.88;7.35;;;;;;;;;;4972214;28;20046;-66
2022/09/05 06:11:38;;;;;;;9.90;7.30;;;;;;;;;;4976865;28;20038;-70
2022/09/05 06:14:09;;;;;;;10.45;6.72;;;;;;;;;;4965872;28;20475;-69
2022/09/05 06:16:49;;;;;;;10.57;6.88;;;;;;;;;;4971788;28;20460;-68
2022/09/05 06:19:46;;;;;;;13.00;7.40;;;;;;;;;;4971613;28;20055;-69
2022/09/05 06:22:34;;;;;;;9.45;6.70;;;;;;;;;;4971413;28;20031;-71
2022/09/05 06:25:38;;;;;;;13.40;6.80;;;;;;;;;;4975121;28;20023;-69
2022/09/05 06:28:09;;;;;;;11.52;6.55;;;;;;;;;;4964594;28;20458;-69
2022/09/05 06:30:59;;;;;;;11.95;6.90;;;;;;;;;;4972551;28;20037;-69
2022/09/05 06:33:39;;;;;;;12.13;8.55;;;;;;;;;;4961478;28;20054;-70
2022/09/05 06:36:37;;;;;;;15.65;9.85;;;;;;;;;;4971556;28;20103;-70
2022/09/05 06:39:02;;;;;;;14.30;10.23;;;;;;;;;;4972955;28;20042;-68
2022/09/05 06:42:19;;;;;;;14.55;9.45;;;;;;;;;;4954135;28;20031;-68
2022/09/05 06:45:02;;;;;;;12.70;9.10;;;;;;;;;;4944867;28;20118;-68
2022/09/05 06:47:30;;;;;;;11.75;9.02;;;;;;;;;;4963034;28;20239;-68
2022/09/05 06:50:18;;;;;;;13.18;10.23;;;;;;;;;;4972809;28;20034;-64
2022/09/05 06:53:05;;;;;;;13.02;9.48;;;;;;;;;;4974312;28;20074;-67
2022/09/05 06:55:49;;;;;;;10.95;8.73;;;;;;;;;;4970141;28;20042;-63
2022/09/05 06:58:46;;;;;;;12.23;9.48;;;;;;;;;;4972630;28;20022;-67
2022/09/05 07:01:13;;;;;;;10.02;8.93;;;;;;;;;;4976318;28;20030;-67
2022/09/05 07:03:41;;;;;;;11.13;9.13;;;;;;;;;;4971329;28;20049;-65
2022/09/05 07:06:09;;;;;;;11.93;8.75;;;;;;;;;;4968472;28;20070;-63
2022/09/05 07:08:54;;;;;;;10.18;8.43;;;;;;;;;;4969278;28;20074;-66
2022/09/05 07:11:28;;;;;;;10.88;9.43;;;;;;;;;;4971146;28;20096;-66
2022/09/05 07:13:56;;;;;;;12.48;9.48;;;;;;;;;;4974863;28;20039;-64
2022/09/05 07:16:40;;;;;;;12.40;7.57;;;;;;;;;;4971672;28;20046;-65
2022/09/05 07:19:25;;;;;;;11.73;8.18;;;;;;;;;;4972192;28;20062;-65
2022/09/05 07:22:01;;;;;;;12.20;8.57;;;;;;;;;;4967006;28;20035;-66
2022/09/05 07:24:30;;;;;;;12.95;8.50;;;;;;;;;;4972707;28;20172;-67
2022/09/05 07:26:58;;;;;;;13.95;7.95;;;;;;;;;;4972992;28;20031;-67
2022/09/05 07:29:37;;;;;;;17.95;8.30;;;;;;;;;;4969115;28;20057;-68
2022/09/05 07:32:05;;;;;;;16.15;8.05;;;;;;;;;;4969745;28;20105;-68
2022/09/05 07:34:36;;;;;;;13.50;7.45;;;;;;;;;;4969960;28;20054;-64
2022/09/05 07:37:22;;;;;;;10.85;7.03;;;;;;;;;;4971077;28;20046;-67
2022/09/05 07:39:55;;;;;;;39.83;13.30;;;;;;;;;;4971475;28;20081;-63
2022/09/05 07:42:58;;;;;;;12.55;6.50;;;;;;;;;;4969641;28;20042;-68
2022/09/05 07:45:27;;;;;;;10.27;6.32;;;;;;;;;;4970850;28;20054;-63
2022/09/05 07:48:10;;;;;;;12.32;6.38;;;;;;;;;;4972016;28;20046;-69
2022/09/05 07:50:58;;;;;;;10.50;6.63;;;;;;;;;;4972446;28;20031;-66
2022/09/05 07:53:25;;;;;;;14.68;6.65;;;;;;;;;;4965646;28;20050;-65
2022/09/05 07:55:56;;;;;;;9.18;6.38;;;;;;;;;;4970704;28;20035;-66
2022/09/05 07:58:38;;;;;;;9.52;5.55;;;;;;;;;;4970690;28;20114;-63
2022/09/05 08:01:04;;;;;;;9.65;6.50;;;;;;;;;;4970715;28;20105;-64
2022/09/05 08:03:29;;;;;;;14.05;6.00;;;;;;;;;;4966783;28;20034;-67
2022/09/05 08:06:03;;;;;;;9.05;6.20;;;;;;;;;;4986236;28;20035;-66
2022/09/05 08:08:50;;;;;;;9.35;5.57;;;;;;;;;;4971415;28;20109;-65
2022/09/05 08:11:18;;;;;;;8.10;5.00;;;;;;;;;;4969929;28;20042;-67
2022/09/05 08:14:02;;;;;;;8.00;4.63;;;;;;;;;;4968189;28;20395;-67
2022/09/05 08:16:27;;;;;;;7.90;4.80;;;;;;;;;;4957039;28;20468;-67
2022/09/05 08:19:16;;;;;;;10.82;4.50;;;;;;;;;;4972019;28;20054;-68
2022/09/05 08:21:49;;;;;;;7.22;4.28;;;;;;;;;;4971145;28;20460;-64
2022/09/05 08:24:14;;;;;;;9.77;3.80;;;;;;;;;;4971968;28;20034;-69
2022/09/05 08:27:03;;;;;;;9.27;3.90;;;;;;;;;;4972287;28;20031;-65
2022/09/05 08:29:40;;;;;;;8.07;3.88;;;;;;;;;;4969915;28;20022;-67
2022/09/05 08:32:15;;;;;;;8.32;3.90;;;;;;;;;;4971293;28;20498;-65
2022/09/05 08:34:49;;;;;;;9.88;3.50;;;;;;;;;;4971580;28;20037;-68
2022/09/05 08:37:20;;;;;;;12.10;4.00;;;;;;;;;;4971922;28;20055;-69
2022/09/05 08:39:49;;;;;;;10.15;3.63;;;;;;;;;;4970948;28;20101;-64
2022/09/05 08:42:47;;;;;;;10.05;3.50;;;;;;;;;;4973440;28;20383;-69
2022/09/05 08:45:25;;;;;;;8.30;3.50;;;;;;;;;;4969642;28;20038;-71
2022/09/05 08:48:01;;;;;;;9.38;3.45;;;;;;;;;;4971869;28;20175;-66
2022/09/05 08:50:38;;;;;;;12.48;3.60;;;;;;;;;;4972657;28;20101;-65
2022/09/05 08:53:23;;;;;;;7.53;3.20;;;;;;;;;;4970568;28;20042;-64
2022/09/05 08:56:18;;;;;;;10.48;3.60;;;;;;;;;;4967526;28;20037;-64
2022/09/05 08:58:56;;;;;;;7.95;3.70;;;;;;;;;;4957344;28;21254;-64
2022/09/05 09:02:03;;;;;;;5.85;3.00;;;;;;;;;;4968396;28;20042;-66
2022/09/05 09:04:31;;;;;;;5.75;3.20;;;;;;;;;;4964363;28;20043;-66
2022/09/05 09:07:21;;;;;;;7.22;3.40;;;;;;;;;;4970770;28;20089;-66
2022/09/05 09:09:58;;;;;;;9.20;3.60;;;;;;;;;;4970992;28;20038;-63
2022/09/05 09:12:37;;;;;;;9.73;3.05;;;;;;;;;;4973860;28;20042;-67
2022/09/05 09:15:13;;;;;;;6.85;2.72;;;;;;;;;;4975970;28;20097;-67
2022/09/05 09:17:45;;;;;;;7.15;2.83;;;;;;;;;;4972757;28;20415;-67
2022/09/05 09:20:51;;;;;;;4.82;2.90;;;;;;;;;;4975054;28;20042;-68
2022/09/05 09:23:41;;;;;;;7.07;2.88;;;;;;;;;;4963383;28;20057;-70
2022/09/05 09:26:15;;;;;;;4.40;2.53;;;;;;;;;;4976086;28;20057;-68
2022/09/05 09:29:02;;;;;;;7.78;2.70;;;;;;;;;;4972663;28;20495;-67
2022/09/05 09:31:36;;;;;;;4.07;2.60;;;;;;;;;;4955471;28;20039;-66
2022/09/05 09:34:31;;;;;;;7.70;2.70;;;;;;;;;;4972306;28;20042;-67
2022/09/05 09:37:20;;;;;;;7.00;2.42;;;;;;;;;;4974800;28;20054;-65
2022/09/05 09:39:48;;;;;;;5.13;2.47;;;;;;;;;;4976569;28;20082;-66
2022/09/05 09:42:35;;;;;;;6.05;2.50;;;;;;;;;;4973899;28;20122;-67
2022/09/05 09:45:40;;;;;;;3.58;2.38;;;;;;;;;;4975215;28;20113;-66
2022/09/05 09:48:11;;;;;;;3.38;2.10;;;;;;;;;;4973850;28;20052;-68
2022/09/05 09:50:42;;;;;;;5.57;2.53;;;;;;;;;;4987541;28;20253;-66
2022/09/05 09:53:32;;;;;;;5.68;2.22;;;;;;;;;;4968588;28;20031;-67
2022/09/05 09:56:19;;;;;;;7.37;2.40;;;;;;;;;;4973527;28;20081;-68
2022/09/05 09:59:07;;;;;;;4.70;2.35;;;;;;;;;;4972874;28;20058;-68
2022/09/05 10:01:52;;;;;;;2.92;2.10;;;;;;;;;;4973038;28;20483;-67
2022/09/05 10:04:23;;;;;;;5.22;2.17;;;;;;;;;;4973385;28;20037;-69
2022/09/05 10:07:00;;;;;;;5.55;2.03;;;;;;;;;;4972257;28;20126;-66
2022/09/05 10:09:53;;;;;;;3.75;2.10;;;;;;;;;;4971907;28;20038;-64
2022/09/05 10:12:40;;;;;;;4.43;1.90;;;;;;;;;;4971013;28;20036;-68
2022/09/05 10:15:27;;;;;;;5.65;2.03;;;;;;;;;;4972217;28;20121;-65
2022/09/05 10:17:58;;;;;;;2.80;1.92;;;;;;;;;;4971766;28;20129;-66
2022/09/05 10:20:45;;;;;;;5.60;2.40;;;;;;;;;;4972633;28;20039;-67
2022/09/05 10:23:38;;;;;;;2.70;1.83;;;;;;;;;;4978023;28;20063;-66
2022/09/05 10:26:06;;;;;;;2.85;1.90;;;;;;;;;;4974432;28;20073;-67
2022/09/05 10:28:43;;;;;;;6.45;2.08;;;;;;;;;;4973060;28;20499;-66
2022/09/05 10:31:12;;;;;;;3.03;1.90;;;;;;;;;;4971238;28;20031;-66
2022/09/05 10:33:42;;;;;;;2.85;1.88;;;;;;;;;;4970276;28;20067;-66
2022/09/05 10:36:21;;;;;;;2.30;2.00;;;;;;;;;;4974376;28;20030;-67
2022/09/05 10:39:00;;;;;;;4.60;2.00;;;;;;;;;;4963897;28;20055;-64
2022/09/05 10:41:49;;;;;;;4.18;2.13;;;;;;;;;;4972117;28;20038;-66
2022/09/05 10:44:25;;;;;;;3.30;2.00;;;;;;;;;;4970108;28;20122;-67
2022/09/05 10:47:31;;;;;;;5.20;2.33;;;;;;;;;;4971766;28;20041;-70
2022/09/05 10:50:24;;;;;;;5.40;1.98;;;;;;;;;;4971905;28;20057;-70
2022/09/05 10:52:49;;;;;;;3.55;1.80;;;;;;;;;;4973313;28;20039;-69
2022/09/05 10:55:29;;;;;;;2.88;1.88;;;;;;;;;;4970394;28;20529;-73
2022/09/05 10:58:28;;;;;;;2.08;1.85;;;;;;;;;;4971227;28;20031;-68
2022/09/05 11:01:29;;;;;;;3.47;1.90;;;;;;;;;;4967258;28;20118;-64
2022/09/05 11:04:10;;;;;;;3.83;2.08;;;;;;;;;;4944917;28;20046;-67
2022/09/05 11:06:41;;;;;;;2.25;1.80;;;;;;;;;;4972032;28;20035;-68
2022/09/05 11:09:14;;;;;;;3.38;1.80;;;;;;;;;;4975009;28;20066;-66
2022/09/05 11:11:51;;;;;;;3.75;1.80;;;;;;;;;;4970644;28;20619;-67
2022/09/05 11:14:34;;;;;;;3.10;1.90;;;;;;;;;;4971374;28;20034;-65
2022/09/05 11:17:47;;;;;;;3.70;1.80;;;;;;;;;;4972538;28;20039;-66
2022/09/05 11:20:40;;;;;;;3.83;1.70;;;;;;;;;;4952935;28;20042;-64
2022/09/05 11:23:16;;;;;;;3.67;1.73;;;;;;;;;;4958708;28;20030;-66
2022/09/05 11:25:45;;;;;;;1.85;1.60;;;;;;;;;;4972032;28;20065;-66
2022/09/05 11:28:34;;;;;;;2.10;1.70;;;;;;;;;;4973023;28;20146;-64
2022/09/05 11:31:03;;;;;;;1.88;1.40;;;;;;;;;;4972390;28;20415;-66
2022/09/05 11:33:55;;;;;;;2.78;1.60;;;;;;;;;;4966618;28;20034;-65
2022/09/05 11:36:45;;;;;;;3.08;1.50;;;;;;;;;;4971595;28;20597;-66
2022/09/05 11:39:33;;;;;;;5.10;1.75;;;;;;;;;;4972206;28;20038;-66
2022/09/05 11:42:32;;;;;;;2.67;1.63;;;;;;;;;;4971850;28;20038;-66
2022/09/05 11:45:09;;;;;;;3.08;1.58;;;;;;;;;;4972195;28;20061;-69
2022/09/05 11:47:38;;;;;;;6.82;1.52;;;;;;;;;;4970861;28;20034;-69
2022/09/05 11:50:45;;;;;;;5.03;1.70;;;;;;;;;;4972105;28;20045;-68
2022/09/05 11:53:29;;;;;;;2.38;1.50;;;;;;;;;;4967199;28;20066;-69
2022/09/05 11:56:18;;;;;;;5.38;1.95;;;;;;;;;;4969150;28;20030;-66
2022/09/05 11:59:04;;;;;;;3.58;1.70;;;;;;;;;;4969076;28;20031;-66
2022/09/05 12:01:56;;;;;;;1.90;1.60;;;;;;;;;;4968681;28;20369;-67
2022/09/05 12:04:24;;;;;;;3.80;1.70;;;;;;;;;;4971799;28;20117;-66
2022/09/05 12:07:04;;;;;;;1.98;1.70;;;;;;;;;;4971224;28;20088;-66
2022/09/05 12:09:36;;;;;;;2.28;1.70;;;;;;;;;;4971389;28;20066;-65
2022/09/05 12:12:26;;;;;;;3.60;1.67;;;;;;;;;;4971795;28;20043;-66
2022/09/05 12:15:16;;;;;;;3.95;1.70;;;;;;;;;;4972485;28;20042;-67
2022/09/05 12:18:01;;;;;;;5.40;1.92;;;;;;;;;;4970204;28;20118;-67
2022/09/05 12:20:54;;;;;;;4.63;1.90;;;;;;;;;;4970482;28;20042;-63
2022/09/05 12:23:52;;;;;;;2.35;1.70;;;;;;;;;;4970242;28;20373;-66
2022/09/05 12:26:42;;;;;;;2.53;1.83;;;;;;;;;;4955221;28;20035;-66
2022/09/05 12:29:17;;;;;;;2.42;1.70;;;;;;;;;;4971479;28;20038;-65
2022/09/05 12:31:50;;;;;;;4.97;1.70;;;;;;;;;;4970893;28;20026;-65
2022/09/05 12:34:49;;;;;;;2.58;1.70;;;;;;;;;;4972601;28;20050;-65
2022/09/05 12:37:26;;;;;;;2.97;1.77;;;;;;;;;;4970888;28;20105;-65
2022/09/05 12:39:56;;;;;;;5.72;1.90;;;;;;;;;;4968915;28;20031;-68
2022/09/05 12:42:40;;;;;;;2.40;1.70;;;;;;;;;;4985195;28;20133;-65
2022/09/05 12:45:17;;;;;;;2.80;1.80;;;;;;;;;;4987271;28;20466;-66
2022/09/05 12:48:07;;;;;;;2.30;1.67;;;;;;;;;;4978228;28;20073;-66
2022/09/05 12:50:33;;;;;;;;;;;;;;;;;;4975896;28;20034;-63
2022/09/05 12:53:05;;;;;;;4.38;1.75;;;;;;;;;;4978915;28;19914;-65
2022/09/05 12:55:53;;;;;;;5.53;1.95;;;;;;;;;;4974279;28;20026;-66
2022/09/05 12:58:26;;;;;;;2.75;1.80;;;;;;;;;;4985854;28;20065;-64
2022/09/05 13:01:05;;;;;;;2.78;1.80;;;;;;;;;;4983928;28;20039;-64
2022/09/05 13:03:36;;;;;;;2.75;1.80;;;;;;;;;;4974341;28;20031;-65
2022/09/05 13:06:20;;;;;;;4.18;1.88;;;;;;;;;;4978864;28;20041;-64
2022/09/05 13:08:50;;;;;;;3.00;1.85;;;;;;;;;;4992104;28;20041;-66
2022/09/05 13:11:20;;;;;;;4.53;1.88;;;;;;;;;;4988727;28;20035;-66
2022/09/05 13:13:53;;;;;;;4.03;1.80;;;;;;;;;;4977815;28;20491;-66
2022/09/05 13:16:24;;;;;;;5.40;1.60;;;;;;;;;;4973596;28;20363;-67
2022/09/05 13:19:06;;;;;;;2.13;1.70;;;;;;;;;;4974609;28;20035;-65
2022/09/05 13:21:38;;;;;;;5.28;1.70;;;;;;;;;;4973095;28;20057;-67
2022/09/05 13:24:20;;;;;;;3.38;1.70;;;;;;;;;;4988727;28;20109;-68
2022/09/05 13:26:57;;;;;;;3.58;1.83;;;;;;;;;;4992579;28;20498;-64
2022/09/05 13:29:29;;;;;;;4.50;1.92;;;;;;;;;;4983265;28;20501;-64
2022/09/05 13:32:11;;;;;;;4.97;1.90;;;;;;;;;;4993940;28;20060;-63
2022/09/05 13:34:42;;;;;;;2.20;1.80;;;;;;;;;;4980234;28;20086;-65
2022/09/05 13:37:28;;;;;;;2.22;1.70;;;;;;;;;;4990180;28;20038;-67
2022/09/05 13:40:09;;;;;;;5.93;1.80;;;;;;;;;;4978683;28;20030;-66
2022/09/05 13:42:42;;;;;;;;;;;;;;;;;;4989925;28;20033;-65
2022/09/05 13:45:17;;;;;;;3.38;1.80;;;;;;;;;;4975526;28;19964;-67
2022/09/05 13:48:04;;;;;;;2.80;1.83;;;;;;;;;;4972991;28;20038;-64
2022/09/05 13:50:37;;;;;;;3.33;1.80;;;;;;;;;;4992272;28;20066;-67
2022/09/05 13:53:25;;;;;;;5.50;1.90;;;;;;;;;;4990389;28;20042;-65
2022/09/05 13:55:57;;;;;;;3.05;1.90;;;;;;;;;;4988747;28;20034;-66
2022/09/05 13:58:35;;;;;;;4.05;1.98;;;;;;;;;;4973791;28;20082;-65
2022/09/05 14:01:30;;;;;;;3.80;2.13;;;;;;;;;;4974324;28;20046;-65
2022/09/05 14:04:13;;;;;;;3.13;1.90;;;;;;;;;;4988546;28;20541;-63
2022/09/05 14:06:55;;;;;;;3.35;1.95;;;;;;;;;;4981233;28;20468;-66
2022/09/05 14:10:05;;;;;;;6.13;2.10;;;;;;;;;;4972198;28;20050;-65
2022/09/05 14:12:33;;;;;;;;;;;;;;;;;;4972453;28;20022;-65
2022/09/05 14:15:03;;;;;;;4.18;2.00;;;;;;;;;;4972929;28;19918;-65
2022/09/05 14:17:36;;;;;;;4.55;2.10;;;;;;;;;;4974106;28;20041;-66
2022/09/05 14:23:04;;;;;;;2.42;1.90;;;;;;;;;;4972327;28;20094;-62
2022/09/05 14:25:37;;;;;;;3.35;2.03;;;;;;;;;;4973118;28;20038;-66
2022/09/05 14:28:05;;;;;;;3.60;1.90;;;;;;;;;;4974303;28;20039;-65
2022/09/05 14:30:50;;;;;;;2.42;1.85;;;;;;;;;;4970338;28;20034;-66
2022/09/05 14:33:50;;;;;;;3.15;1.90;;;;;;;;;;4974517;28;20037;-66
2022/09/05 14:36:45;;;;;;;;;;;;;;;;;;4973899;28;20023;-65
2022/09/05 14:39:35;;;;;;;3.00;1.80;;;;;;;;;;4972425;28;20377;-66
2022/09/05 14:42:25;;;;;;;2.03;1.67;;;;;;;;;;4971595;28;20042;-65
2022/09/05 14:45:00;;;;;;;4.30;1.67;;;;;;;;;;4953902;28;20127;-65
2022/09/05 14:47:51;;;;;;;3.97;1.60;;;;;;;;;;4969943;28;20065;-65
2022/09/05 14:50:31;;;;;;;2.55;1.65;;;;;;;;;;4973764;28;20053;-66
2022/09/05 14:52:58;;;;;;;2.28;1.58;;;;;;;;;;4973008;28;20502;-65
2022/09/05 14:55:24;;;;;;;2.33;1.48;;;;;;;;;;4971420;28;20038;-67
2022/09/05 14:57:49;;;;;;;3.00;1.63;;;;;;;;;;4973130;28;20034;-64
2022/09/05 15:00:19;;;;;;;2.47;1.60;;;;;;;;;;4970855;28;20046;-69
2022/09/05 15:02:48;;;;;;;3.17;1.45;;;;;;;;;;4957033;28;20064;-67
2022/09/05 15:05:13;;;;;;;3.03;1.80;;;;;;;;;;4973837;28;20034;-64
2022/09/05 15:07:47;;;;;;;2.17;1.55;;;;;;;;;;4971922;28;20043;-65
2022/09/05 15:10:15;;;;;;;3.63;1.83;;;;;;;;;;4973843;28;20034;-65
2022/09/05 15:13:10;;;;;;;1.92;1.50;;;;;;;;;;4969772;28;20031;-65
2022/09/05 15:15:44;;;;;;;2.45;1.58;;;;;;;;;;4971210;28;20043;-66
2022/09/05 15:18:18;;;;;;;2.65;1.88;;;;;;;;;;4972298;28;20030;-66
2022/09/05 15:20:47;;;;;;;4.88;1.80;;;;;;;;;;4972870;28;20049;-66
2022/09/05 15:23:18;;;;;;;4.13;1.60;;;;;;;;;;4972574;28;20053;-66
2022/09/05 15:26:14;;;;;;;2.65;1.60;;;;;;;;;;4971413;28;20043;-65
2022/09/05 15:28:46;;;;;;;4.47;1.70;;;;;;;;;;4972817;28;20038;-66
2022/09/05 15:31:23;;;;;;;3.70;1.70;;;;;;;;;;4972081;28;20361;-65
2022/09/05 15:33:52;;;;;;;1.70;1.60;;;;;;;;;;4972562;28;20045;-65
2022/09/05 15:36:32;;;;;;;2.47;1.52;;;;;;;;;;4971755;28;20027;-68
2022/09/05 15:38:57;;;;;;;4.13;1.70;;;;;;;;;;4971546;28;20031;-66
2022/09/05 15:41:30;;;;;;;2.20;1.70;;;;;;;;;;4972213;28;20045;-64
2022/09/05 15:44:03;;;;;;;2.35;1.70;;;;;;;;;;4972614;28;20034;-65
2022/09/05 15:46:48;;;;;;;4.22;2.00;;;;;;;;;;4972272;28;20046;-64
2022/09/05 15:49:30;;;;;;;2.10;1.60;;;;;;;;;;4972538;28;20483;-64
2022/09/05 15:52:22;;;;;;;2.22;1.95;;;;;;;;;;4971875;28;20391;-64
2022/09/05 15:54:52;;;;;;;4.75;1.70;;;;;;;;;;4970778;28;20047;-65
2022/09/05 15:57:28;;;;;;;4.30;1.67;;;;;;;;;;4965888;28;20101;-64
2022/09/05 15:59:56;;;;;;;1.70;1.60;;;;;;;;;;4972088;28;20122;-63
2022/09/05 16:02:28;;;;;;;2.42;1.55;;;;;;;;;;4970099;28;20117;-66
2022/09/05 16:05:03;;;;;;;2.50;1.60;;;;;;;;;;4970361;28;20893;-66
2022/09/05 16:07:32;;;;;;;3.42;1.83;;;;;;;;;;4976250;28;20436;-62